Time;durP1;ratioP1;P1;durP2;ratioP2;P2;SDS_P1;SDS_P2;PMS_P1;PMS_P2;Temp;Humidity;BMP_temperature;BMP_pressure;BME280_temperature;BME280_humidity;BME280_pressure;Samples;Min_cycle;Max_cycle;Signal;HPM_P1;HPM_P2
2022/07/13 00:00:46;;;;;;;1.67;1.10;;;;;;;;;;5012943;28;20022;-72
2022/07/13 00:03:13;;;;;;;1.10;0.90;;;;;;;;;;5012013;28;20056;-72
2022/07/13 00:05:39;;;;;;;1.88;0.95;;;;;;;;;;5011909;28;20033;-72
2022/07/13 00:08:05;;;;;;;3.15;1.00;;;;;;;;;;5011764;28;20491;-72
2022/07/13 00:10:32;;;;;;;2.25;1.10;;;;;;;;;;5011838;28;20040;-72
2022/07/13 00:12:58;;;;;;;1.27;0.82;;;;;;;;;;5011971;28;20040;-72
2022/07/13 00:15:24;;;;;;;1.60;1.10;;;;;;;;;;5012545;28;20232;-72
2022/07/13 00:17:51;;;;;;;2.63;1.00;;;;;;;;;;5011471;28;20022;-72
2022/07/13 00:20:17;;;;;;;1.20;1.00;;;;;;;;;;5011720;28;20036;-72
2022/07/13 00:22:43;;;;;;;2.65;1.08;;;;;;;;;;5011733;28;20466;-72
2022/07/13 00:25:10;;;;;;;3.90;1.20;;;;;;;;;;5011813;28;20384;-72
2022/07/13 00:27:36;;;;;;;1.02;0.90;;;;;;;;;;5010212;28;20083;-72
2022/07/13 00:30:02;;;;;;;3.70;1.30;;;;;;;;;;5011535;28;20018;-72
2022/07/13 00:32:29;;;;;;;1.60;1.08;;;;;;;;;;5011407;28;20033;-73
2022/07/13 00:34:55;;;;;;;1.23;1.13;;;;;;;;;;5011511;28;20402;-72
2022/07/13 00:37:21;;;;;;;1.23;1.00;;;;;;;;;;5011945;28;20030;-72
2022/07/13 00:39:47;;;;;;;2.42;0.90;;;;;;;;;;5012163;28;20546;-72
2022/07/13 00:42:14;;;;;;;1.52;1.17;;;;;;;;;;5011815;28;20044;-72
2022/07/13 00:44:40;;;;;;;3.03;1.10;;;;;;;;;;5011666;28;20045;-72
2022/07/13 00:47:06;;;;;;;2.35;1.00;;;;;;;;;;5014841;28;20026;-72
2022/07/13 00:49:33;;;;;;;4.88;1.20;;;;;;;;;;5015812;28;20034;-72
2022/07/13 00:51:59;;;;;;;1.48;1.00;;;;;;;;;;5015673;28;20038;-72
2022/07/13 00:54:29;;;;;;;2.22;0.90;;;;;;;;;;5015733;28;20032;-72
2022/07/13 00:56:55;;;;;;;2.30;1.00;;;;;;;;;;5015665;28;20018;-72
2022/07/13 00:59:22;;;;;;;1.45;0.90;;;;;;;;;;5015296;28;20024;-72
2022/07/13 01:01:48;;;;;;;1.50;1.00;;;;;;;;;;5014937;28;20018;-73
2022/07/13 01:04:15;;;;;;;5.57;1.20;;;;;;;;;;5015326;28;20017;-72
2022/07/13 01:06:41;;;;;;;0.95;0.95;;;;;;;;;;5014609;28;20037;-72
2022/07/13 01:09:07;;;;;;;0.80;0.80;;;;;;;;;;5014952;28;20049;-72
2022/07/13 01:11:34;;;;;;;1.95;1.13;;;;;;;;;;5014932;28;20022;-72
2022/07/13 01:14:00;;;;;;;1.35;1.20;;;;;;;;;;5015077;28;20044;-72
2022/07/13 01:16:27;;;;;;;3.17;1.10;;;;;;;;;;5014719;28;20406;-72
2022/07/13 01:18:54;;;;;;;2.00;1.20;;;;;;;;;;5015533;28;20030;-72
2022/07/13 01:21:20;;;;;;;1.05;0.90;;;;;;;;;;5015109;28;20018;-72
2022/07/13 01:23:47;;;;;;;1.30;1.20;;;;;;;;;;5014855;28;20487;-72
2022/07/13 01:26:14;;;;;;;4.82;1.10;;;;;;;;;;5014868;28;20053;-72
2022/07/13 01:28:40;;;;;;;1.70;1.20;;;;;;;;;;5014879;28;20048;-72
2022/07/13 01:31:06;;;;;;;2.47;1.40;;;;;;;;;;5014465;28;20022;-72
2022/07/13 01:33:33;;;;;;;1.42;0.90;;;;;;;;;;5015169;28;20037;-72
2022/07/13 01:35:59;;;;;;;1.58;0.93;;;;;;;;;;5014573;28;20014;-72
2022/07/13 01:38:26;;;;;;;4.45;1.35;;;;;;;;;;5014780;28;20071;-72
2022/07/13 01:40:52;;;;;;;1.90;0.95;;;;;;;;;;5014645;28;20457;-72
2022/07/13 01:43:24;;;;;;;4.00;0.95;;;;;;;;;;5014245;28;20034;-72
2022/07/13 01:45:50;;;;;;;1.63;0.88;;;;;;;;;;5014967;28;20031;-72
2022/07/13 01:48:16;;;;;;;1.48;1.00;;;;;;;;;;5014259;28;20368;-72
2022/07/13 01:50:42;;;;;;;4.35;1.02;;;;;;;;;;5014518;28;20024;-71
2022/07/13 01:53:09;;;;;;;6.07;1.05;;;;;;;;;;5014289;28;20038;-72
2022/07/13 01:55:35;;;;;;;7.32;1.60;;;;;;;;;;5014385;28;20103;-72
2022/07/13 01:58:02;;;;;;;2.35;1.10;;;;;;;;;;5012890;28;20025;-72
2022/07/13 02:00:29;;;;;;;1.77;1.10;;;;;;;;;;5014826;28;20048;-72
2022/07/13 02:02:55;;;;;;;1.20;1.10;;;;;;;;;;5014197;28;20479;-72
2022/07/13 02:05:22;;;;;;;3.22;0.90;;;;;;;;;;5014230;28;20036;-72
2022/07/13 02:07:48;;;;;;;2.83;1.00;;;;;;;;;;5014128;28;20052;-71
2022/07/13 02:10:15;;;;;;;1.25;1.15;;;;;;;;;;5013938;28;20512;-72
2022/07/13 02:12:41;;;;;;;1.05;0.95;;;;;;;;;;5014182;28;20457;-71
2022/07/13 02:15:11;;;;;;;1.10;1.00;;;;;;;;;;5013866;28;20503;-72
2022/07/13 02:17:37;;;;;;;1.20;1.10;;;;;;;;;;5013918;28;20079;-72
2022/07/13 02:20:04;;;;;;;4.20;1.05;;;;;;;;;;5013802;28;20517;-72
2022/07/13 02:22:45;;;;;;;2.40;1.25;;;;;;;;;;5013751;28;20042;-72
2022/07/13 02:25:12;;;;;;;1.63;1.30;;;;;;;;;;5013999;28;20030;-72
2022/07/13 02:27:38;;;;;;;1.48;1.00;;;;;;;;;;5013967;28;20030;-72
2022/07/13 02:30:05;;;;;;;1.15;0.90;;;;;;;;;;5013596;28;20018;-72
2022/07/13 02:32:31;;;;;;;1.17;0.95;;;;;;;;;;5013522;28;20038;-72
2022/07/13 02:34:57;;;;;;;2.08;0.85;;;;;;;;;;5026133;28;20017;-72
2022/07/13 02:37:24;;;;;;;1.08;0.98;;;;;;;;;;5013845;28;20026;-72
2022/07/13 02:39:53;;;;;;;1.92;0.93;;;;;;;;;;5014015;28;20029;-72
2022/07/13 02:42:19;;;;;;;1.25;0.82;;;;;;;;;;5013035;28;20072;-72
2022/07/13 02:44:45;;;;;;;3.15;1.10;;;;;;;;;;5013546;28;20020;-72
2022/07/13 02:47:12;;;;;;;1.80;0.88;;;;;;;;;;5013356;28;20032;-72
2022/07/13 02:49:38;;;;;;;3.80;0.90;;;;;;;;;;5013263;28;20021;-72
2022/07/13 02:52:04;;;;;;;1.38;0.88;;;;;;;;;;5013411;28;20034;-72
2022/07/13 02:54:31;;;;;;;2.33;0.80;;;;;;;;;;5013705;28;20034;-72
2022/07/13 02:56:58;;;;;;;0.85;0.85;;;;;;;;;;5012790;28;20022;-72
2022/07/13 02:59:24;;;;;;;1.70;1.02;;;;;;;;;;5013144;28;20029;-72
2022/07/13 03:01:51;;;;;;;3.28;1.10;;;;;;;;;;5013110;28;20026;-72
2022/07/13 03:04:17;;;;;;;2.13;1.00;;;;;;;;;;5028185;28;20026;-72
2022/07/13 03:06:44;;;;;;;2.92;1.00;;;;;;;;;;5028966;28;20032;-72
2022/07/13 03:09:11;;;;;;;1.92;1.13;;;;;;;;;;5012314;28;20044;-72
2022/07/13 03:11:37;;;;;;;1.10;1.00;;;;;;;;;;5012335;28;20399;-72
2022/07/13 03:14:03;;;;;;;2.40;1.10;;;;;;;;;;5012807;28;20040;-72
2022/07/13 03:16:30;;;;;;;0.90;0.90;;;;;;;;;;5012953;28;20434;-72
2022/07/13 03:18:56;;;;;;;2.25;1.00;;;;;;;;;;5013076;28;20032;-72
2022/07/13 03:21:22;;;;;;;0.95;0.80;;;;;;;;;;5013196;28;20025;-72
2022/07/13 03:23:49;;;;;;;1.60;1.00;;;;;;;;;;5012700;28;20026;-72
2022/07/13 03:26:15;;;;;;;1.17;0.88;;;;;;;;;;5012265;28;20483;-71
2022/07/13 03:28:41;;;;;;;3.22;1.10;;;;;;;;;;5012611;28;20030;-72
2022/07/13 03:31:07;;;;;;;2.25;1.00;;;;;;;;;;5012741;28;20491;-72
2022/07/13 03:33:34;;;;;;;1.77;0.90;;;;;;;;;;5012825;28;20038;-72
2022/07/13 03:36:00;;;;;;;1.85;0.95;;;;;;;;;;5012399;28;20025;-72
2022/07/13 03:38:26;;;;;;;1.30;1.13;;;;;;;;;;5012366;28;20024;-72
2022/07/13 03:40:53;;;;;;;1.27;0.95;;;;;;;;;;5012184;28;20014;-72
2022/07/13 03:43:19;;;;;;;2.72;0.98;;;;;;;;;;5012293;28;20797;-72
2022/07/13 03:45:45;;;;;;;1.60;1.10;;;;;;;;;;5012864;28;20041;-72
2022/07/13 03:48:13;;;;;;;1.35;1.13;;;;;;;;;;5012023;28;20022;-72
2022/07/13 03:50:40;;;;;;;1.65;1.20;;;;;;;;;;5012235;28;20437;-72
2022/07/13 03:53:06;;;;;;;1.42;0.95;;;;;;;;;;5012065;28;20030;-72
2022/07/13 03:55:33;;;;;;;1.75;0.88;;;;;;;;;;5011800;28;20032;-72
2022/07/13 03:58:00;;;;;;;2.05;1.13;;;;;;;;;;5012270;28;20033;-72
2022/07/13 04:00:26;;;;;;;2.50;1.05;;;;;;;;;;5012588;28;20041;-72
2022/07/13 04:02:52;;;;;;;4.05;1.00;;;;;;;;;;5011992;28;20014;-72
2022/07/13 04:05:19;;;;;;;4.28;1.00;;;;;;;;;;5011946;28;20022;-72
2022/07/13 04:07:45;;;;;;;3.22;1.30;;;;;;;;;;5011808;28;20022;-72
2022/07/13 04:10:11;;;;;;;3.72;1.00;;;;;;;;;;5011470;28;20036;-72
2022/07/13 04:12:38;;;;;;;3.92;1.13;;;;;;;;;;5012622;28;20052;-72
2022/07/13 04:15:05;;;;;;;1.85;1.10;;;;;;;;;;5011811;28;20018;-71
2022/07/13 04:17:31;;;;;;;5.00;1.15;;;;;;;;;;5011914;28;20034;-72
2022/07/13 04:19:57;;;;;;;4.78;0.98;;;;;;;;;;5011107;28;20020;-72
2022/07/13 04:22:23;;;;;;;2.78;1.10;;;;;;;;;;5011726;28;20034;-72
2022/07/13 04:24:50;;;;;;;1.55;0.98;;;;;;;;;;5011950;28;20022;-72
2022/07/13 04:27:16;;;;;;;2.88;1.10;;;;;;;;;;5011968;28;20025;-72
2022/07/13 04:29:42;;;;;;;2.60;1.10;;;;;;;;;;5011680;28;20044;-72
2022/07/13 04:32:09;;;;;;;4.38;1.20;;;;;;;;;;5011581;28;20075;-72
2022/07/13 04:34:35;;;;;;;4.00;1.17;;;;;;;;;;5011946;28;20029;-72
2022/07/13 04:37:01;;;;;;;5.55;1.20;;;;;;;;;;5011734;28;20474;-72
2022/07/13 04:39:28;;;;;;;2.67;1.20;;;;;;;;;;5011601;28;20026;-72
2022/07/13 04:41:54;;;;;;;1.75;1.10;;;;;;;;;;5011741;28;20022;-72
2022/07/13 04:44:20;;;;;;;6.75;1.20;;;;;;;;;;5011479;28;20036;-72
2022/07/13 04:46:47;;;;;;;3.00;1.15;;;;;;;;;;5011631;28;20376;-72
2022/07/13 04:49:13;;;;;;;2.65;1.13;;;;;;;;;;5011544;28;20491;-72
2022/07/13 04:51:39;;;;;;;7.90;1.17;;;;;;;;;;5011900;28;20544;-72
2022/07/13 04:54:06;;;;;;;1.70;0.90;;;;;;;;;;5011112;28;20026;-72
2022/07/13 04:56:32;;;;;;;3.35;1.33;;;;;;;;;;5011381;28;20026;-72
2022/07/13 04:58:58;;;;;;;2.65;1.05;;;;;;;;;;5011317;28;20036;-72
2022/07/13 05:01:25;;;;;;;11.70;1.25;;;;;;;;;;5010215;28;20076;-72
2022/07/13 05:03:52;;;;;;;4.50;1.48;;;;;;;;;;5012269;28;20034;-72
2022/07/13 05:06:18;;;;;;;8.32;1.33;;;;;;;;;;5010817;28;20509;-72
2022/07/13 05:08:45;;;;;;;1.73;1.13;;;;;;;;;;5011159;28;20042;-72
2022/07/13 05:11:11;;;;;;;1.90;1.23;;;;;;;;;;5011109;28;20034;-72
2022/07/13 05:13:37;;;;;;;5.80;1.42;;;;;;;;;;5011142;28;20044;-72
2022/07/13 05:16:04;;;;;;;233.25;18.02;;;;;;;;;;5011481;28;20022;-72
2022/07/13 05:18:30;;;;;;;1018.40;74.53;;;;;;;;;;5010680;28;20026;-71
2022/07/13 05:20:57;;;;;;;792.67;61.40;;;;;;;;;;5023329;28;20034;-72
2022/07/13 05:23:23;;;;;;;8.65;1.77;;;;;;;;;;5011155;28;20026;-72
2022/07/13 05:25:49;;;;;;;3.47;1.40;;;;;;;;;;5011186;28;20026;-72
2022/07/13 05:28:16;;;;;;;10.40;1.90;;;;;;;;;;5011045;28;20017;-72
2022/07/13 05:30:42;;;;;;;9.50;1.60;;;;;;;;;;5010590;28;20491;-72
2022/07/13 05:33:08;;;;;;;9.20;1.45;;;;;;;;;;5026799;28;20040;-72
2022/07/13 05:35:34;;;;;;;8.20;1.60;;;;;;;;;;5014260;28;20014;-72
2022/07/13 05:38:01;;;;;;;14.95;2.15;;;;;;;;;;5014549;28;20056;-72
2022/07/13 05:40:27;;;;;;;13.20;1.60;;;;;;;;;;5014726;28;20028;-72
2022/07/13 05:42:53;;;;;;;6.72;1.73;;;;;;;;;;5015319;28;20026;-72
2022/07/13 05:45:20;;;;;;;3.72;1.30;;;;;;;;;;5014440;28;20032;-72
2022/07/13 05:47:47;;;;;;;5.22;1.27;;;;;;;;;;5014337;28;20034;-72
2022/07/13 05:50:13;;;;;;;7.45;1.20;;;;;;;;;;5014344;28;20022;-72
2022/07/13 05:52:40;;;;;;;9.40;1.67;;;;;;;;;;5014528;28;20034;-72
2022/07/13 05:55:07;;;;;;;3.25;1.20;;;;;;;;;;5014511;28;20030;-72
2022/07/13 05:57:33;;;;;;;5.20;1.60;;;;;;;;;;5014855;28;20087;-72
2022/07/13 05:59:59;;;;;;;3.38;1.33;;;;;;;;;;5014173;28;20544;-72
2022/07/13 06:02:25;;;;;;;7.78;1.30;;;;;;;;;;5026736;28;20017;-72
2022/07/13 06:04:52;;;;;;;7.40;1.50;;;;;;;;;;5014116;28;20099;-72
2022/07/13 06:07:18;;;;;;;10.20;1.50;;;;;;;;;;5014062;28;20491;-72
2022/07/13 06:09:44;;;;;;;5.25;1.23;;;;;;;;;;5014407;28;20037;-72
2022/07/13 06:12:11;;;;;;;7.25;1.30;;;;;;;;;;5014051;28;20030;-72
2022/07/13 06:14:37;;;;;;;7.47;1.35;;;;;;;;;;5014052;28;20208;-72
2022/07/13 06:17:03;;;;;;;7.00;1.75;;;;;;;;;;5014194;28;20026;-72
2022/07/13 06:19:30;;;;;;;3.22;1.23;;;;;;;;;;5013955;28;20021;-72
2022/07/13 06:21:56;;;;;;;10.40;1.52;;;;;;;;;;5014563;28;20029;-72
2022/07/13 06:24:22;;;;;;;7.00;1.70;;;;;;;;;;5013777;28;20026;-72
2022/07/13 06:26:49;;;;;;;2.85;1.40;;;;;;;;;;5013852;28;20051;-72
2022/07/13 06:29:16;;;;;;;1.85;1.10;;;;;;;;;;5013662;28;20390;-72
2022/07/13 06:31:42;;;;;;;4.80;1.40;;;;;;;;;;5013717;28;20018;-72
2022/07/13 06:34:08;;;;;;;6.10;1.67;;;;;;;;;;5013839;28;20026;-72
2022/07/13 06:36:35;;;;;;;11.38;1.60;;;;;;;;;;5011052;28;20059;-72
2022/07/13 06:39:02;;;;;;;9.38;1.70;;;;;;;;;;5009031;28;20029;-72
2022/07/13 06:41:29;;;;;;;3.70;1.30;;;;;;;;;;5013358;28;20026;-72
2022/07/13 06:43:55;;;;;;;5.72;1.40;;;;;;;;;;5012828;28;20026;-72
2022/07/13 06:46:23;;;;;;;3.70;1.30;;;;;;;;;;5013228;28;20475;-72
2022/07/13 06:48:49;;;;;;;2.78;1.30;;;;;;;;;;5013467;28;20500;-72
2022/07/13 06:51:16;;;;;;;2.58;1.27;;;;;;;;;;5013078;28;20033;-72
2022/07/13 06:53:42;;;;;;;6.70;1.60;;;;;;;;;;5010658;28;20042;-72
2022/07/13 06:56:08;;;;;;;5.45;1.50;;;;;;;;;;5012786;28;20589;-72
2022/07/13 06:58:35;;;;;;;2.63;1.20;;;;;;;;;;5013282;28;20038;-72
2022/07/13 07:01:02;;;;;;;2.38;1.20;;;;;;;;;;5013063;28;20521;-71
2022/07/13 07:03:28;;;;;;;3.80;1.60;;;;;;;;;;5013068;28;20040;-71
2022/07/13 07:05:55;;;;;;;6.05;1.73;;;;;;;;;;5012102;28;20383;-72
2022/07/13 07:08:21;;;;;;;2.53;1.42;;;;;;;;;;5012206;28;20037;-72
2022/07/13 07:10:48;;;;;;;2.13;1.10;;;;;;;;;;5012953;28;20026;-72
2022/07/13 07:13:15;;;;;;;7.07;1.65;;;;;;;;;;5012486;28;20038;-71
2022/07/13 07:15:41;;;;;;;7.47;1.63;;;;;;;;;;5013091;28;20038;-72
2022/07/13 07:18:08;;;;;;;3.20;1.40;;;;;;;;;;5009845;28;20029;-72
2022/07/13 07:20:34;;;;;;;6.00;1.40;;;;;;;;;;5012372;28;20491;-72
2022/07/13 07:23:00;;;;;;;2.13;1.30;;;;;;;;;;5012522;28;20034;-72
2022/07/13 07:25:27;;;;;;;1.65;1.10;;;;;;;;;;5011618;28;20018;-72
2022/07/13 07:27:53;;;;;;;1.40;1.13;;;;;;;;;;5027144;28;20060;-73
2022/07/13 07:30:19;;;;;;;1.75;1.30;;;;;;;;;;5012134;28;20030;-72
2022/07/13 07:32:46;;;;;;;6.55;1.33;;;;;;;;;;5012087;28;20414;-72
2022/07/13 07:35:12;;;;;;;3.75;1.30;;;;;;;;;;5012071;28;20034;-73
2022/07/13 07:37:39;;;;;;;6.20;1.30;;;;;;;;;;5012266;28;20024;-72
2022/07/13 07:40:06;;;;;;;1.92;1.13;;;;;;;;;;5011547;28;20025;-72
2022/07/13 07:42:32;;;;;;;1.30;1.20;;;;;;;;;;5011610;28;20493;-72
2022/07/13 07:44:59;;;;;;;2.35;1.25;;;;;;;;;;5008121;28;20030;-72
2022/07/13 07:47:25;;;;;;;1.55;1.30;;;;;;;;;;5011734;28;20021;-72
2022/07/13 07:49:52;;;;;;;8.88;1.60;;;;;;;;;;5011188;28;20569;-72
2022/07/13 07:52:19;;;;;;;2.55;1.33;;;;;;;;;;5011386;28;20056;-72
2022/07/13 07:54:46;;;;;;;5.13;1.40;;;;;;;;;;5013052;28;20026;-72
2022/07/13 07:57:13;;;;;;;5.63;1.60;;;;;;;;;;5012315;28;20401;-72
2022/07/13 07:59:39;;;;;;;2.60;1.30;;;;;;;;;;5011654;28;20022;-72
2022/07/13 08:02:06;;;;;;;3.78;1.48;;;;;;;;;;5011084;28;20033;-71
2022/07/13 08:04:32;;;;;;;5.20;1.25;;;;;;;;;;5011958;28;20072;-72
2022/07/13 08:06:59;;;;;;;5.63;1.30;;;;;;;;;;5011296;28;20610;-73
2022/07/13 08:09:26;;;;;;;4.80;1.30;;;;;;;;;;5011272;28;20060;-72
2022/07/13 08:11:53;;;;;;;6.53;1.40;;;;;;;;;;5010868;28;20084;-72
2022/07/13 08:14:21;;;;;;;2.55;1.30;;;;;;;;;;5011020;28;20044;-72
2022/07/13 08:16:47;;;;;;;3.35;1.20;;;;;;;;;;5011314;28;20028;-73
2022/07/13 08:19:13;;;;;;;7.65;1.30;;;;;;;;;;5026620;28;20026;-72
2022/07/13 08:21:40;;;;;;;8.13;1.30;;;;;;;;;;5008147;28;20029;-72
2022/07/13 08:24:07;;;;;;;5.38;1.42;;;;;;;;;;5011112;28;20026;-72
2022/07/13 08:26:33;;;;;;;3.20;1.30;;;;;;;;;;5011078;28;20025;-72
2022/07/13 08:29:00;;;;;;;3.30;1.08;;;;;;;;;;5011101;28;20486;-72
2022/07/13 08:31:27;;;;;;;3.45;1.58;;;;;;;;;;4995521;28;20030;-71
2022/07/13 08:39:25;;;;;;;4.07;1.25;;;;;;;;;;5011359;28;20029;-72
2022/07/13 08:41:52;;;;;;;4.57;1.73;;;;;;;;;;5011313;28;20021;-72
2022/07/13 08:44:19;;;;;;;8.63;1.73;;;;;;;;;;5010917;28;20498;-72
2022/07/13 08:46:45;;;;;;;4.00;1.80;;;;;;;;;;5011608;28;20014;-72
2022/07/13 08:49:11;;;;;;;2.75;1.58;;;;;;;;;;5011035;28;20045;-72
2022/07/13 08:51:40;;;;;;;5.38;1.25;;;;;;;;;;5010587;28;20022;-72
2022/07/13 08:54:06;;;;;;;5.88;1.40;;;;;;;;;;5008410;28;20445;-73
2022/07/13 08:56:33;;;;;;;6.53;1.50;;;;;;;;;;5010260;28;20024;-73
2022/07/13 08:59:00;;;;;;;4.60;1.38;;;;;;;;;;5010245;28;20028;-72
2022/07/13 09:01:26;;;;;;;3.58;1.20;;;;;;;;;;4999923;28;20020;-72
2022/07/13 09:03:53;;;;;;;6.20;1.33;;;;;;;;;;5011263;28;20029;-72
2022/07/13 09:06:37;;;;;;;5.72;1.40;;;;;;;;;;5010326;28;20024;-73
2022/07/13 09:09:04;;;;;;;6.57;1.30;;;;;;;;;;5012975;28;20050;-72
2022/07/13 09:11:30;;;;;;;5.18;1.40;;;;;;;;;;5014547;28;20026;-72
2022/07/13 09:13:57;;;;;;;2.70;1.30;;;;;;;;;;5013779;28;20041;-73
2022/07/13 09:16:24;;;;;;;2.85;1.40;;;;;;;;;;5014398;28;20037;-72
2022/07/13 09:18:54;;;;;;;7.97;1.70;;;;;;;;;;5014131;28;20501;-72
2022/07/13 09:21:22;;;;;;;24.33;2.40;;;;;;;;;;5014143;28;20018;-72
2022/07/13 09:23:52;;;;;;;3.80;1.42;;;;;;;;;;5012337;28;20438;-72
2022/07/13 09:26:18;;;;;;;13.35;1.75;;;;;;;;;;5010228;28;20511;-72
2022/07/13 09:28:46;;;;;;;3.92;1.50;;;;;;;;;;5012421;28;20022;-72
2022/07/13 09:31:13;;;;;;;3.60;1.67;;;;;;;;;;5013177;28;20483;-73
2022/07/13 09:33:40;;;;;;;6.70;1.40;;;;;;;;;;5011791;28;20029;-72
2022/07/13 09:36:11;;;;;;;3.65;1.55;;;;;;;;;;5013081;28;20026;-72
2022/07/13 09:38:42;;;;;;;4.35;1.50;;;;;;;;;;5011170;28;20454;-73
2022/07/13 09:41:26;;;;;;;7.03;1.65;;;;;;;;;;5012963;28;20025;-73
2022/07/13 09:46:50;;;;;;;9.25;1.63;;;;;;;;;;5012585;28;20036;-72
2022/07/13 09:49:17;;;;;;;5.57;1.40;;;;;;;;;;5011713;28;20022;-73
2022/07/13 09:51:44;;;;;;;7.82;1.48;;;;;;;;;;5013315;28;20034;-72
2022/07/13 09:54:11;;;;;;;5.35;1.80;;;;;;;;;;5013024;28;20028;-73
2022/07/13 09:56:39;;;;;;;3.85;1.40;;;;;;;;;;5012607;28;20036;-73
2022/07/13 09:59:07;;;;;;;5.07;1.38;;;;;;;;;;5012641;28;20483;-73
2022/07/13 10:01:33;;;;;;;5.53;1.33;;;;;;;;;;5012528;28;20018;-73
2022/07/13 10:04:00;;;;;;;5.68;1.40;;;;;;;;;;5012675;28;20071;-72
2022/07/13 10:06:27;;;;;;;7.70;1.35;;;;;;;;;;5013119;28;20502;-72
2022/07/13 10:08:54;;;;;;;6.50;1.40;;;;;;;;;;5013021;28;20045;-72
2022/07/13 10:11:21;;;;;;;4.70;1.30;;;;;;;;;;5010904;28;20036;-73
2022/07/13 10:13:47;;;;;;;5.32;1.50;;;;;;;;;;5012645;28;20034;-73
2022/07/13 10:16:14;;;;;;;7.40;1.10;;;;;;;;;;5012755;28;20036;-72
2022/07/13 10:18:41;;;;;;;5.13;1.20;;;;;;;;;;5007276;28;20072;-73
2022/07/13 10:21:11;;;;;;;3.85;1.08;;;;;;;;;;5010498;28;20032;-73
2022/07/13 10:23:38;;;;;;;1.77;1.10;;;;;;;;;;5012694;28;20033;-73
2022/07/13 10:26:17;;;;;;;4.68;1.40;;;;;;;;;;5009827;28;20025;-73
2022/07/13 10:29:00;;;;;;;2.40;1.33;;;;;;;;;;5012759;28;20018;-73
2022/07/13 10:31:27;;;;;;;2.42;0.93;;;;;;;;;;4997057;28;20018;-73
2022/07/13 10:33:53;;;;;;;5.78;1.50;;;;;;;;;;5012974;28;20038;-73
2022/07/13 10:36:40;;;;;;;3.28;1.40;;;;;;;;;;5012395;28;20030;-73
2022/07/13 10:39:12;;;;;;;2.83;1.17;;;;;;;;;;5012323;28;20030;-72
2022/07/13 10:41:59;;;;;;;3.17;1.02;;;;;;;;;;5012057;28;20486;-73
2022/07/13 10:44:44;;;;;;;4.75;1.10;;;;;;;;;;5012202;28;20026;-72
2022/07/13 10:47:11;;;;;;;2.05;1.00;;;;;;;;;;5012303;28;20041;-72
2022/07/13 10:49:47;;;;;;;1.60;0.82;;;;;;;;;;5012339;28;20044;-72
2022/07/13 10:52:37;;;;;;;3.90;0.93;;;;;;;;;;5012111;28;20030;-72
2022/07/13 10:55:03;;;;;;;5.50;0.90;;;;;;;;;;5015394;28;20064;-72
2022/07/13 10:57:34;;;;;;;3.63;1.02;;;;;;;;;;5012347;28;20482;-72
2022/07/13 11:00:16;;;;;;;17.92;1.50;;;;;;;;;;5012413;28;20020;-72
2022/07/13 11:02:54;;;;;;;3.03;1.10;;;;;;;;;;5012212;28;20030;-73
2022/07/13 11:05:26;;;;;;;2.55;0.93;;;;;;;;;;5012121;28;20040;-72
2022/07/13 11:07:53;;;;;;;4.88;0.88;;;;;;;;;;5012298;28;20037;-73
2022/07/13 11:10:25;;;;;;;2.20;0.90;;;;;;;;;;5011630;28;20041;-73
2022/07/13 11:13:09;;;;;;;0.82;0.70;;;;;;;;;;5010938;28;20029;-73
2022/07/13 11:15:45;;;;;;;6.95;1.00;;;;;;;;;;5011643;28;20037;-73
2022/07/13 11:18:28;;;;;;;1.00;0.85;;;;;;;;;;5011904;28;20024;-73
2022/07/13 11:20:55;;;;;;;1.15;0.75;;;;;;;;;;5012491;28;20079;-72
2022/07/13 11:26:33;;;;;;;0.85;0.80;;;;;;;;;;5012220;28;20010;-72
2022/07/13 11:29:08;;;;;;;2.28;0.73;;;;;;;;;;5003047;28;20048;-72
2022/07/13 11:31:35;;;;;;;1.02;0.90;;;;;;;;;;4992121;28;20507;-72
2022/07/13 11:34:02;;;;;;;1.27;0.80;;;;;;;;;;5007023;28;20054;-73
2022/07/13 11:36:28;;;;;;;2.95;1.00;;;;;;;;;;5003378;28;20046;-73
2022/07/13 11:38:55;;;;;;;0.88;0.88;;;;;;;;;;5001449;28;20026;-73
2022/07/13 11:41:23;;;;;;;1.30;0.80;;;;;;;;;;5003002;28;20294;-73
2022/07/13 11:43:50;;;;;;;2.75;0.90;;;;;;;;;;5008977;28;20032;-73
2022/07/13 11:46:23;;;;;;;0.90;0.90;;;;;;;;;;5008936;28;20415;-73
2022/07/13 11:48:59;;;;;;;0.75;0.75;;;;;;;;;;5005501;28;20384;-72
2022/07/13 11:51:26;;;;;;;1.80;0.82;;;;;;;;;;5012357;28;20405;-72
2022/07/13 11:53:53;;;;;;;2.95;0.90;;;;;;;;;;5011188;28;20061;-72
2022/07/13 11:56:19;;;;;;;2.63;0.98;;;;;;;;;;5001331;28;20049;-72
2022/07/13 11:58:47;;;;;;;4.15;1.00;;;;;;;;;;5004742;28;20027;-73
2022/07/13 12:01:15;;;;;;;5.20;1.00;;;;;;;;;;5007449;28;20034;-72
2022/07/13 12:03:46;;;;;;;1.05;0.80;;;;;;;;;;5008533;28;20030;-72
2022/07/13 12:06:12;;;;;;;0.95;0.65;;;;;;;;;;5011155;28;20042;-73
2022/07/13 12:08:40;;;;;;;1.42;0.82;;;;;;;;;;5010154;28;20058;-72
2022/07/13 12:11:08;;;;;;;0.80;0.80;;;;;;;;;;5009108;28;20018;-72
2022/07/13 12:13:36;;;;;;;5.82;1.10;;;;;;;;;;5011204;28;20038;-72
2022/07/13 12:16:03;;;;;;;3.55;0.93;;;;;;;;;;5026837;28;20028;-73
2022/07/13 12:18:29;;;;;;;7.10;1.10;;;;;;;;;;5011297;28;20026;-72
2022/07/13 12:20:57;;;;;;;2.35;0.80;;;;;;;;;;5009072;28;20382;-73
2022/07/13 12:23:23;;;;;;;3.38;1.10;;;;;;;;;;5010888;28;20063;-72
2022/07/13 12:26:03;;;;;;;4.88;0.88;;;;;;;;;;5010860;28;20030;-72
2022/07/13 12:28:30;;;;;;;;;;;;;;;;;;5009502;28;20428;-73
2022/07/13 12:30:58;;;;;;;1.20;0.80;;;;;;;;;;5012108;28;19906;-73
2022/07/13 12:33:25;;;;;;;1.00;0.90;;;;;;;;;;5011492;28;20397;-73
2022/07/13 12:36:04;;;;;;;4.38;1.00;;;;;;;;;;5010751;28;20030;-72
2022/07/13 12:38:31;;;;;;;3.73;1.40;;;;;;;;;;5009726;28;20026;-73
2022/07/13 12:41:01;;;;;;;1.85;0.82;;;;;;;;;;5010613;28;20018;-72
2022/07/13 12:43:35;;;;;;;0.80;0.80;;;;;;;;;;5009800;28;20025;-72
2022/07/13 12:46:02;;;;;;;0.80;0.80;;;;;;;;;;5005356;28;20024;-73
2022/07/13 12:48:33;;;;;;;5.72;0.88;;;;;;;;;;5010922;28;20030;-73
2022/07/13 12:51:03;;;;;;;5.90;1.00;;;;;;;;;;5011035;28;20498;-72
2022/07/13 12:53:45;;;;;;;3.00;0.93;;;;;;;;;;5011124;28;20030;-72
2022/07/13 12:56:12;;;;;;;2.58;0.90;;;;;;;;;;5011511;28;20252;-72
2022/07/13 12:58:41;;;;;;;1.08;0.80;;;;;;;;;;5010332;28;20022;-72
2022/07/13 13:01:07;;;;;;;1.33;0.87;;;;;;;;;;5011270;28;20018;-73
2022/07/13 13:03:34;;;;;;;3.15;0.95;;;;;;;;;;5009859;28;20513;-73
2022/07/13 13:06:00;;;;;;;0.80;0.80;;;;;;;;;;5010901;28;20410;-73
2022/07/13 13:08:27;;;;;;;4.60;0.88;;;;;;;;;;5010930;28;20050;-72
2022/07/13 13:10:53;;;;;;;1.45;1.05;;;;;;;;;;5011231;28;20026;-73
2022/07/13 13:13:19;;;;;;;1.33;0.77;;;;;;;;;;5010994;28;20040;-73
2022/07/13 13:15:46;;;;;;;1.15;0.90;;;;;;;;;;5011735;28;20030;-73
2022/07/13 13:18:12;;;;;;;3.33;0.90;;;;;;;;;;5011176;28;20037;-72
2022/07/13 13:20:40;;;;;;;16.55;1.52;;;;;;;;;;5010864;28;20029;-72
2022/07/13 13:23:06;;;;;;;1.23;0.80;;;;;;;;;;5011108;28;20398;-72
2022/07/13 13:25:34;;;;;;;3.42;0.70;;;;;;;;;;5010343;28;20034;-75
2022/07/13 13:28:00;;;;;;;2.75;0.80;;;;;;;;;;5010593;28;20479;-73
2022/07/13 13:30:45;;;;;;;1.00;0.85;;;;;;;;;;5010498;28;20045;-72
2022/07/13 13:33:15;;;;;;;1.75;1.05;;;;;;;;;;5009782;28;20038;-73
2022/07/13 13:35:42;;;;;;;1.75;0.88;;;;;;;;;;5010606;28;20026;-72
2022/07/13 13:38:09;;;;;;;4.35;0.93;;;;;;;;;;5010941;28;20521;-73
2022/07/13 13:40:37;;;;;;;4.13;1.10;;;;;;;;;;5011141;28;20026;-73
2022/07/13 13:43:03;;;;;;;1.70;0.90;;;;;;;;;;5011017;28;20410;-73
2022/07/13 13:45:31;;;;;;;0.90;0.90;;;;;;;;;;5011625;28;20038;-73
2022/07/13 13:47:57;;;;;;;2.10;1.00;;;;;;;;;;5010945;28;20481;-73
2022/07/13 13:50:24;;;;;;;1.40;0.90;;;;;;;;;;5010526;28;20498;-72
2022/07/13 13:52:50;;;;;;;0.80;0.80;;;;;;;;;;5012482;28;20040;-73
2022/07/13 13:55:17;;;;;;;0.90;0.82;;;;;;;;;;5014444;28;20067;-73
2022/07/13 13:57:44;;;;;;;3.30;0.88;;;;;;;;;;5015119;28;20032;-73
2022/07/13 14:00:11;;;;;;;4.13;1.00;;;;;;;;;;5014209;28;20394;-73
2022/07/13 14:02:38;;;;;;;3.47;0.90;;;;;;;;;;5014327;28;20030;-73
2022/07/13 14:05:04;;;;;;;1.15;0.95;;;;;;;;;;5014071;28;20032;-73
2022/07/13 14:07:31;;;;;;;1.15;0.80;;;;;;;;;;5014444;28;20034;-73
2022/07/13 14:09:57;;;;;;;2.65;1.08;;;;;;;;;;5014727;28;20042;-72
2022/07/13 14:12:23;;;;;;;5.13;1.10;;;;;;;;;;5013997;28;20040;-72
2022/07/13 14:14:51;;;;;;;3.88;1.08;;;;;;;;;;5014037;28;20038;-73
2022/07/13 14:17:17;;;;;;;0.80;0.80;;;;;;;;;;5013702;28;20088;-73
2022/07/13 14:19:46;;;;;;;0.98;0.88;;;;;;;;;;5014405;28;20030;-72
2022/07/13 14:22:15;;;;;;;2.08;0.80;;;;;;;;;;5014070;28;20102;-72
2022/07/13 14:24:41;;;;;;;1.07;0.80;;;;;;;;;;5012770;28;20083;-72
2022/07/13 14:27:08;;;;;;;1.63;0.95;;;;;;;;;;5013951;28;20018;-73
2022/07/13 14:29:34;;;;;;;2.35;0.90;;;;;;;;;;5013948;28;20494;-73
2022/07/13 14:32:00;;;;;;;2.65;0.95;;;;;;;;;;5013398;28;20501;-72
2022/07/13 14:34:26;;;;;;;3.40;1.20;;;;;;;;;;4997715;28;20044;-72
2022/07/13 14:36:53;;;;;;;3.75;0.75;;;;;;;;;;5014149;28;20380;-72
2022/07/13 14:39:20;;;;;;;2.38;0.90;;;;;;;;;;5013712;28;20109;-72
2022/07/13 14:41:46;;;;;;;3.05;0.80;;;;;;;;;;5013932;28;20028;-72
2022/07/13 14:44:13;;;;;;;2.05;0.90;;;;;;;;;;5013524;28;20085;-71
2022/07/13 14:46:39;;;;;;;1.77;0.90;;;;;;;;;;5013251;28;20026;-72
2022/07/13 14:49:05;;;;;;;1.80;0.82;;;;;;;;;;5013513;28;20040;-71
2022/07/13 14:51:32;;;;;;;3.85;1.20;;;;;;;;;;5013929;28;20394;-72
2022/07/13 14:54:04;;;;;;;2.03;0.75;;;;;;;;;;5013263;28;20040;-72
2022/07/13 14:56:31;;;;;;;1.75;0.93;;;;;;;;;;5013193;28;20029;-72